createdAt,value
2018-01-28T10:43:14.393Z,16.00
2018-01-28T10:45:43.653Z,16.20
2018-01-28T10:48:11.744Z,15.17
2018-01-28T10:50:39.864Z,15.23
2018-01-28T10:53:07.964Z,12.83
2018-01-28T10:55:36.085Z,12.60
2018-01-28T10:58:04.957Z,13.30
2018-01-28T11:00:33.072Z,12.80
2018-01-28T11:03:01.178Z,14.40
2018-01-28T11:05:29.295Z,14.77
2018-01-28T11:07:58.158Z,13.37
2018-01-28T11:10:26.315Z,14.77
2018-01-28T11:12:54.382Z,18.40
2018-01-28T11:15:22.506Z,10.93
2018-01-28T11:17:51.369Z,13.53
2018-01-28T11:20:19.485Z,19.90
2018-01-28T11:22:47.584Z,12.80
2018-01-28T11:25:15.714Z,14.03
2018-01-28T11:27:44.578Z,14.73
2018-01-28T11:30:12.694Z,21.63
2018-01-28T11:32:40.794Z,22.37
2018-01-28T11:35:08.920Z,18.13
2018-01-28T11:37:37.791Z,17.10
2018-01-28T11:40:06.006Z,19.53
2018-01-28T11:42:34.110Z,17.03
2018-01-28T11:45:02.233Z,15.17
2018-01-28T11:47:31.105Z,17.83
2018-01-28T11:49:59.220Z,21.07
2018-01-28T11:52:29.416Z,24.57
2018-01-28T11:54:58.770Z,15.83
2018-01-28T11:57:26.873Z,22.40
2018-01-28T11:59:54.997Z,27.00
2018-01-28T12:02:23.099Z,24.40
2018-01-28T12:04:51.219Z,18.10
2018-01-28T12:07:20.227Z,23.97
2018-01-28T12:09:48.416Z,19.97
2018-01-28T12:12:16.554Z,18.40
2018-01-28T12:14:44.700Z,25.47
2018-01-28T12:17:12.800Z,22.43
2018-01-28T12:19:40.924Z,23.37
2018-01-28T12:22:09.030Z,26.33
2018-01-28T12:24:37.153Z,20.50
2018-01-28T12:27:05.255Z,24.27
2018-01-28T12:29:33.377Z,26.90
2018-01-28T12:32:02.249Z,23.70
2018-01-28T12:34:30.378Z,29.07
2018-01-28T12:36:58.491Z,26.63
2018-01-28T12:39:26.630Z,25.00
2018-01-28T12:41:54.732Z,21.57
2018-01-28T12:44:22.833Z,20.80
2018-01-28T12:46:51.721Z,24.13
2018-01-28T12:49:20.597Z,21.80
2018-01-28T12:51:48.723Z,21.13
2018-01-28T12:54:16.829Z,21.10
2018-01-28T12:56:44.973Z,27.67
2018-01-28T12:59:13.134Z,30.20
2018-01-28T13:01:41.991Z,22.80
2018-01-28T13:04:10.856Z,19.53
2018-01-28T13:06:38.976Z,24.80
2018-01-28T13:09:07.072Z,22.37
2018-01-28T13:11:35.193Z,19.17
2018-01-28T13:14:04.065Z,21.77
2018-01-28T13:16:33.145Z,22.03
2018-01-28T13:19:01.242Z,23.20
2018-01-28T13:21:29.357Z,23.83
2018-01-28T13:23:57.453Z,20.20
2018-01-28T13:26:25.592Z,28.00
2018-01-28T13:28:54.454Z,21.60
2018-01-28T13:31:22.590Z,23.33
2018-01-28T13:33:50.687Z,20.47
2018-01-28T13:36:18.813Z,22.83
2018-01-28T13:38:46.924Z,24.50
2018-01-28T13:41:15.047Z,24.20
2018-01-28T13:43:43.161Z,20.00
2018-01-28T13:46:11.289Z,19.83
2018-01-28T13:48:40.160Z,19.80
2018-01-28T13:51:08.281Z,23.83
2018-01-28T13:53:36.385Z,25.20
2018-01-28T13:56:04.511Z,24.27
2018-01-28T13:58:32.622Z,26.23
2018-01-28T14:01:00.768Z,25.73
2018-01-28T14:03:28.877Z,27.83
2018-01-28T14:05:57.001Z,21.97
2018-01-28T14:08:25.868Z,25.43
2018-01-28T14:10:53.998Z,21.27
2018-01-28T14:13:22.101Z,25.47
2018-01-28T14:15:50.220Z,29.13
2018-01-28T14:18:18.321Z,22.00
2018-01-28T14:20:46.456Z,26.93
2018-01-28T14:23:15.330Z,22.30
2018-01-28T14:25:43.453Z,31.00
2018-01-28T14:28:11.561Z,32.23
2018-01-28T14:30:40.052Z,31.27
2018-01-28T14:33:08.168Z,22.67
2018-01-28T14:35:36.322Z,22.37
2018-01-28T14:38:05.194Z,25.67
2018-01-28T14:40:33.323Z,26.80
2018-01-28T14:43:01.425Z,23.20
2018-01-28T14:45:29.563Z,23.67
2018-01-28T14:47:57.668Z,24.23
2018-01-28T14:50:25.780Z,24.53
2018-01-28T14:52:55.061Z,24.80
2018-01-28T14:55:23.185Z,23.70
2018-01-28T14:57:51.283Z,20.33
2018-01-28T15:00:19.400Z,24.20
2018-01-28T15:02:49.377Z,28.07
2018-01-28T15:05:17.501Z,29.87
2018-01-28T15:07:45.650Z,23.53
2018-01-28T15:10:13.712Z,24.40
2018-01-28T15:12:42.702Z,24.27
2018-01-28T15:15:10.805Z,32.10
2018-01-28T15:17:39.688Z,24.87
2018-01-28T15:20:08.556Z,25.77
2018-01-28T15:22:36.832Z,22.47
2018-01-28T15:25:04.942Z,28.43
2018-01-28T15:27:33.061Z,29.40
2018-01-28T15:30:01.162Z,26.17
2018-01-28T15:32:29.292Z,28.87
2018-01-28T15:34:57.403Z,37.70
2018-01-28T15:37:26.146Z,32.07
2018-01-28T15:39:54.532Z,41.63
2018-01-28T15:42:22.664Z,25.60
2018-01-28T15:44:51.528Z,30.57
2018-01-28T15:47:19.653Z,30.07
2018-01-28T15:49:47.758Z,27.13
2018-01-28T15:52:15.885Z,29.20
2018-01-28T15:54:43.993Z,20.90
2018-01-28T15:57:12.113Z,28.43
2018-01-28T15:59:41.108Z,127.90
2018-01-28T16:02:09.313Z,76.93
2018-01-28T16:04:37.404Z,36.77
2018-01-28T16:07:05.524Z,29.00
2018-01-28T16:09:34.390Z,32.90
2018-01-28T16:12:02.529Z,26.83
2018-01-28T16:14:30.683Z,34.07
2018-01-28T16:16:58.760Z,24.83
2018-01-28T16:19:26.872Z,29.57
2018-01-28T16:21:55.010Z,25.33
2018-01-28T16:24:23.105Z,23.80
2018-01-28T16:26:51.244Z,19.40
2018-01-28T16:29:19.400Z,18.90
2018-01-28T16:31:48.365Z,20.80
2018-01-28T16:34:16.556Z,20.13
2018-01-28T16:36:44.679Z,23.20
2018-01-28T16:39:12.784Z,17.93
2018-01-28T16:41:40.909Z,19.23
2018-01-28T16:44:09.018Z,14.50
2018-01-28T16:46:37.137Z,18.93
2018-01-28T16:49:06.009Z,18.87
2018-01-28T16:51:34.151Z,15.43
2018-01-28T16:54:02.266Z,18.17
2018-01-28T16:56:31.144Z,22.87
2018-01-28T16:58:59.244Z,19.83
2018-01-28T17:01:27.478Z,21.90
2018-01-28T17:03:55.681Z,20.60
2018-01-28T17:06:24.570Z,16.80
2018-01-28T17:08:53.428Z,14.80
2018-01-28T17:11:21.569Z,17.13
2018-01-28T17:13:49.958Z,13.50
2018-01-28T17:16:18.455Z,14.70
2018-01-28T17:18:46.670Z,16.57
2018-01-28T17:21:15.548Z,18.77
2018-01-28T17:23:43.788Z,21.60
2018-01-28T17:26:11.978Z,13.43
2018-01-28T17:28:40.173Z,15.83
2018-01-28T17:31:08.292Z,20.60
2018-01-28T17:33:36.390Z,29.23
2018-01-28T17:36:04.512Z,16.77
2018-01-28T17:38:33.383Z,41.53
2018-01-28T17:41:01.509Z,33.03
2018-01-28T17:43:29.750Z,45.17
2018-01-28T17:45:58.618Z,35.33
2018-01-28T17:48:26.896Z,19.50
2018-01-28T17:50:55.000Z,20.60
2018-01-28T17:53:23.117Z,14.00
2018-01-28T17:55:51.245Z,14.67
2018-01-28T17:58:20.238Z,13.63
2018-01-28T18:00:48.345Z,17.27
2018-01-28T18:03:16.467Z,16.60
2018-01-28T18:05:45.332Z,16.70
2018-01-28T18:08:13.455Z,15.70
2018-01-28T18:10:41.546Z,17.60
2018-01-28T18:13:10.016Z,24.67
2018-01-28T18:15:38.427Z,23.90
2018-01-28T18:18:06.568Z,22.20
2018-01-28T18:20:34.674Z,15.13
2018-01-28T18:23:02.797Z,13.80
2018-01-28T18:25:30.970Z,17.50
2018-01-28T18:27:59.132Z,17.63
2018-01-28T18:30:27.193Z,18.30
2018-01-28T18:32:55.312Z,20.47
2018-01-28T18:35:23.426Z,16.93
2018-01-28T18:37:51.751Z,16.50
2018-01-28T18:40:19.905Z,13.60
2018-01-28T18:42:48.807Z,14.30
2018-01-28T18:45:16.913Z,13.53
2018-01-28T18:47:45.041Z,13.07
2018-01-28T18:50:14.033Z,12.80
2018-01-28T18:52:42.268Z,15.87
2018-01-28T18:55:10.453Z,17.73
2018-01-28T18:57:38.638Z,13.30
2018-01-28T19:00:06.740Z,17.43
2018-01-28T19:02:38.672Z,15.03
2018-01-28T19:05:06.781Z,17.70
2018-01-28T19:07:34.901Z,18.10
2018-01-28T19:10:03.290Z,15.87
2018-01-28T19:12:31.790Z,14.27
2018-01-28T19:15:00.768Z,14.20
2018-01-28T19:17:29.277Z,20.70
2018-01-28T19:19:58.237Z,16.43
2018-01-28T19:22:26.369Z,17.43
2018-01-28T19:24:54.469Z,14.97
2018-01-28T19:27:22.593Z,17.70
2018-01-28T19:29:50.692Z,16.17
2018-01-28T19:32:19.209Z,18.20
2018-01-28T19:34:47.389Z,17.67
2018-01-28T19:37:15.515Z,15.60
2018-01-28T19:39:43.631Z,19.20
2018-01-28T19:42:11.756Z,24.57
2018-01-28T19:44:39.862Z,20.37
2018-01-28T19:47:08.014Z,18.83
2018-01-28T19:49:36.101Z,22.30
2018-01-28T19:52:04.226Z,22.23
2018-01-28T19:54:33.094Z,20.97
2018-01-28T19:57:01.209Z,20.77
2018-01-28T19:59:29.321Z,21.50
2018-01-28T20:01:57.450Z,19.93
2018-01-28T20:04:25.554Z,24.97
2018-01-28T20:06:53.656Z,30.63
2018-01-28T20:09:21.792Z,24.63
2018-01-28T20:11:49.889Z,22.57
2018-01-28T20:14:18.069Z,29.10
2018-01-28T20:16:46.935Z,24.17
2018-01-28T20:19:15.063Z,23.80
2018-01-28T20:21:43.928Z,37.60
2018-01-28T20:24:12.049Z,26.50
2018-01-28T20:26:40.153Z,23.33
2018-01-28T20:29:08.273Z,24.83
2018-01-28T20:31:37.133Z,24.67
2018-01-28T20:34:05.253Z,27.73
2018-01-28T20:36:33.374Z,28.77
2018-01-28T20:39:01.497Z,24.33
2018-01-28T20:41:29.608Z,27.23
2018-01-28T20:43:57.741Z,25.30
2018-01-28T20:46:25.846Z,23.90
2018-01-28T20:48:53.976Z,26.47
2018-01-28T20:51:22.844Z,28.47
2018-01-28T20:53:50.968Z,27.73
2018-01-28T20:56:19.068Z,24.03
2018-01-28T20:58:47.197Z,25.00
2018-01-28T21:01:15.308Z,25.37
2018-01-28T21:03:43.433Z,27.63
2018-01-28T21:06:11.532Z,19.70
2018-01-28T21:08:39.662Z,18.87
2018-01-28T21:11:07.805Z,26.97
2018-01-28T21:13:35.931Z,28.40
2018-01-28T21:16:04.033Z,22.10
2018-01-28T21:18:32.161Z,17.40
2018-01-28T21:21:01.026Z,24.33
2018-01-28T21:23:29.149Z,19.97
2018-01-28T21:25:57.253Z,24.30
2018-01-28T21:28:25.384Z,24.33
2018-01-28T21:30:53.489Z,19.60
2018-01-28T21:33:21.612Z,20.27
2018-01-28T21:35:50.486Z,24.63
2018-01-28T21:38:18.600Z,20.20
2018-01-28T21:40:46.717Z,20.07
2018-01-28T21:43:14.836Z,21.93
2018-01-28T21:45:42.944Z,22.23
2018-01-28T21:48:11.068Z,19.17
2018-01-28T21:50:39.936Z,26.60
2018-01-28T21:53:08.057Z,18.77
2018-01-28T21:55:36.217Z,18.47
2018-01-28T21:58:05.172Z,19.73
2018-01-28T22:00:33.283Z,20.80
2018-01-28T22:03:02.172Z,19.63
2018-01-28T22:05:31.036Z,21.50
2018-01-28T22:07:59.160Z,21.80
2018-01-28T22:10:27.256Z,16.53
2018-01-28T22:12:55.381Z,16.20
2018-01-28T22:15:23.482Z,18.70
2018-01-28T22:17:51.601Z,15.20
2018-01-28T22:20:19.694Z,13.37
2018-01-28T22:22:48.573Z,14.67
2018-01-28T22:25:17.437Z,11.63
2018-01-28T22:27:45.552Z,10.43
2018-01-28T22:30:13.656Z,14.60
2018-01-28T22:32:41.785Z,12.03
2018-01-28T22:35:10.664Z,12.47
2018-01-28T22:37:39.539Z,11.03
2018-01-28T22:40:07.648Z,9.67
2018-01-28T22:42:36.512Z,11.10
2018-01-28T22:45:04.633Z,10.37
2018-01-28T22:47:33.124Z,7.90
2018-01-28T22:50:01.361Z,10.00
2018-01-28T22:52:30.353Z,7.33
2018-01-28T22:54:59.270Z,8.57
2018-01-28T22:57:27.356Z,8.47
2018-01-28T22:59:56.294Z,8.63
2018-01-28T23:02:24.384Z,6.07
2018-01-28T23:04:53.270Z,7.37
2018-01-28T23:07:22.132Z,7.23
2018-01-28T23:09:51.224Z,6.63
2018-01-28T23:12:19.321Z,6.10
2018-01-28T23:14:47.436Z,6.23
2018-01-28T23:17:15.531Z,6.70
2018-01-28T23:19:43.636Z,6.10
2018-01-28T23:22:11.732Z,4.57
2018-01-28T23:24:40.609Z,4.70
2018-01-28T23:27:08.702Z,5.80
2018-01-28T23:29:36.823Z,5.70
2018-01-28T23:32:04.934Z,5.43
2018-01-28T23:34:33.816Z,4.80
2018-01-28T23:37:01.909Z,5.30
2018-01-28T23:39:30.789Z,5.57
2018-01-28T23:41:59.663Z,11.23
2018-01-28T23:44:27.782Z,4.77
2018-01-28T23:46:55.872Z,7.80
2018-01-28T23:49:23.988Z,3.97
2018-01-28T23:51:52.075Z,6.17
2018-01-28T23:54:20.961Z,5.47
2018-01-28T23:56:49.815Z,5.90
2018-01-28T23:59:17.933Z,7.73
